createdAt,value
2022-11-21T00:20:12.487Z,3.03
2022-11-21T00:37:14.335Z,3.33
2022-11-21T00:43:09.755Z,2.80
2022-11-21T00:45:42.740Z,3.20
2022-11-21T00:51:27.677Z,3.03
2022-11-21T00:54:29.523Z,3.63
2022-11-21T00:57:01.025Z,2.87
2022-11-21T00:59:52.361Z,3.10
2022-11-21T01:05:24.516Z,2.97
2022-11-21T01:10:52.298Z,2.70
2022-11-21T01:13:37.306Z,3.37
2022-11-21T01:16:46.428Z,2.83
2022-11-21T01:19:16.417Z,3.00
2022-11-21T01:22:03.537Z,3.10
2022-11-21T01:24:33.370Z,3.83
2022-11-21T01:27:21.003Z,2.80
2022-11-21T01:29:51.089Z,3.10
2022-11-21T01:35:22.105Z,3.40
2022-11-21T01:38:00.768Z,2.70
2022-11-21T01:40:54.058Z,2.40
2022-11-21T01:43:25.939Z,2.63
2022-11-21T01:46:01.589Z,3.00
2022-11-21T01:48:51.384Z,3.83
2022-11-21T01:51:29.048Z,3.00
2022-11-21T01:54:18.348Z,2.60
2022-11-21T01:56:52.962Z,3.07
2022-11-21T01:59:26.712Z,3.60
2022-11-21T02:01:57.818Z,3.77
2022-11-21T02:04:30.143Z,2.90
2022-11-21T02:07:09.297Z,3.40
2022-11-21T02:09:45.805Z,3.13
2022-11-21T02:12:23.938Z,3.23
2022-11-21T02:14:55.179Z,2.83
2022-11-21T02:17:24.009Z,3.20
2022-11-21T02:19:56.899Z,3.43
2022-11-21T02:22:40.635Z,2.70
2022-11-21T02:25:16.239Z,3.90
2022-11-21T02:27:45.237Z,2.57
2022-11-21T02:30:16.748Z,3.23
2022-11-21T02:32:47.572Z,3.67
2022-11-21T02:35:18.641Z,2.80
2022-11-21T02:37:50.638Z,2.90
2022-11-21T02:40:26.829Z,2.50
2022-11-21T02:43:04.365Z,3.10
2022-11-21T02:45:40.437Z,3.87
2022-11-21T02:48:10.981Z,3.13
2022-11-21T02:50:41.174Z,2.97
2022-11-21T02:53:12.042Z,3.57
2022-11-21T02:55:42.155Z,3.10
2022-11-21T02:58:13.850Z,3.27
2022-11-21T03:00:44.927Z,3.07
2022-11-21T03:03:14.754Z,3.43
2022-11-21T03:05:43.361Z,3.27
2022-11-21T03:08:12.541Z,2.97
2022-11-21T03:10:42.589Z,4.03
2022-11-21T03:13:12.396Z,3.20
2022-11-21T03:15:41.087Z,3.97
2022-11-21T03:18:09.973Z,2.47
2022-11-21T03:20:39.167Z,3.00
2022-11-21T03:23:07.726Z,3.33
2022-11-21T03:25:38.559Z,3.70
2022-11-21T03:28:09.377Z,3.73
2022-11-21T03:30:39.091Z,4.30
2022-11-21T03:33:08.209Z,3.40
2022-11-21T03:35:39.482Z,2.70
2022-11-21T03:38:08.056Z,4.10
2022-11-21T03:40:37.353Z,3.43
2022-11-21T03:43:09.277Z,2.57
2022-11-21T03:45:38.665Z,3.20
2022-11-21T03:48:09.693Z,3.23
2022-11-21T03:50:38.473Z,3.50
2022-11-21T03:53:07.172Z,3.33
2022-11-21T03:55:36.153Z,3.40
2022-11-21T03:58:04.856Z,3.27
2022-11-21T04:00:36.741Z,3.43
2022-11-21T04:03:08.477Z,3.97
2022-11-21T04:05:40.385Z,3.73
2022-11-21T04:08:09.444Z,3.80
2022-11-21T04:10:40.047Z,3.73
2022-11-21T04:13:08.831Z,3.60
2022-11-21T04:15:39.545Z,3.07
2022-11-21T04:18:08.355Z,3.40
2022-11-21T04:20:37.712Z,3.60
2022-11-21T04:23:06.343Z,3.33
2022-11-21T04:25:35.187Z,2.77
2022-11-21T04:28:05.935Z,2.83
2022-11-21T04:30:36.008Z,3.77
2022-11-21T04:33:08.672Z,4.53
2022-11-21T04:35:39.698Z,2.87
2022-11-21T04:38:08.580Z,3.80
2022-11-21T04:40:38.925Z,2.90
2022-11-21T04:43:13.960Z,3.17
2022-11-21T04:45:45.583Z,3.77
2022-11-21T04:48:15.969Z,3.20
2022-11-21T04:50:47.827Z,2.90
2022-11-21T04:53:16.874Z,3.00
2022-11-21T04:55:49.216Z,3.97
2022-11-21T04:58:17.954Z,3.27
2022-11-21T05:00:46.711Z,3.13
2022-11-21T05:03:16.616Z,3.20
2022-11-21T05:05:45.526Z,3.17
2022-11-21T05:08:16.680Z,3.33
2022-11-21T05:11:02.483Z,4.13
2022-11-21T05:13:30.914Z,3.40
2022-11-21T05:16:00.117Z,3.30
2022-11-21T05:18:30.888Z,3.23
2022-11-21T05:20:59.288Z,3.63
2022-11-21T05:23:30.368Z,3.43
2022-11-21T05:25:58.991Z,3.43
2022-11-21T05:31:23.907Z,3.33
2022-11-21T05:33:56.199Z,2.73
2022-11-21T05:36:30.800Z,2.87
2022-11-21T05:38:59.616Z,3.10
2022-11-21T05:41:27.966Z,3.53
2022-11-21T05:43:55.700Z,3.80
2022-11-21T05:46:26.180Z,4.37
2022-11-21T05:48:57.309Z,3.93
2022-11-21T05:51:26.278Z,4.30
2022-11-21T05:53:59.637Z,3.67
2022-11-21T05:56:38.268Z,3.77
2022-11-21T05:59:08.545Z,3.87
2022-11-21T06:01:59.727Z,3.40
2022-11-21T06:04:31.591Z,3.27
2022-11-21T06:09:58.339Z,4.20
2022-11-21T06:15:45.393Z,3.47
2022-11-21T06:21:25.260Z,3.83
2022-11-21T06:24:10.825Z,3.23
2022-11-21T06:29:48.565Z,2.60
2022-11-21T06:49:55.846Z,3.30
2022-11-21T07:17:41.535Z,3.20
2022-11-21T07:36:37.173Z,1.90
2022-11-21T07:41:51.242Z,2.17
2022-11-21T07:44:19.599Z,2.33
2022-11-21T07:46:49.601Z,2.37
2022-11-21T07:49:29.862Z,2.30
2022-11-21T07:52:08.671Z,2.33
2022-11-21T07:54:38.023Z,2.30
2022-11-21T07:57:09.831Z,2.60
2022-11-21T07:59:38.595Z,2.10
2022-11-21T08:02:07.284Z,3.00
2022-11-21T08:04:56.259Z,1.70
2022-11-21T08:07:33.838Z,2.30
2022-11-21T08:10:06.680Z,2.10
2022-11-21T08:12:36.827Z,2.63
2022-11-21T08:15:10.481Z,1.93
2022-11-21T08:17:39.897Z,2.10
2022-11-21T08:20:26.379Z,2.20
2022-11-21T08:22:55.366Z,1.30
2022-11-21T08:25:27.130Z,2.00
2022-11-21T08:28:00.197Z,2.17
2022-11-21T08:33:16.523Z,1.90
2022-11-21T08:35:55.070Z,1.90
2022-11-21T08:38:24.285Z,1.53
2022-11-21T08:41:17.675Z,1.40
2022-11-21T08:43:53.878Z,2.20
2022-11-21T08:46:34.439Z,1.67
2022-11-21T08:49:15.577Z,1.40
2022-11-21T08:52:01.915Z,1.67
2022-11-21T08:54:38.173Z,1.60
2022-11-21T08:57:20.394Z,1.23
2022-11-21T08:59:53.541Z,1.50
2022-11-21T09:02:23.921Z,1.23
2022-11-21T09:05:02.102Z,1.50
2022-11-21T09:07:32.834Z,1.33
2022-11-21T09:13:00.404Z,1.30
2022-11-21T09:15:48.070Z,1.83
2022-11-21T09:18:21.325Z,1.50
2022-11-21T09:20:52.994Z,1.13
2022-11-21T09:23:24.034Z,1.30
2022-11-21T09:25:52.875Z,1.27
2022-11-21T09:31:26.171Z,0.83
2022-11-21T09:33:56.602Z,1.00
2022-11-21T09:36:28.526Z,0.90
2022-11-21T09:39:16.790Z,0.93
2022-11-21T10:09:29.978Z,1.10
2022-11-21T10:12:26.724Z,1.00
2022-11-21T10:26:53.123Z,1.20
2022-11-21T10:31:59.229Z,1.90
2022-11-21T10:34:41.882Z,1.37
2022-11-21T10:37:30.964Z,1.13
2022-11-21T10:42:59.406Z,0.80
2022-11-21T10:45:27.488Z,0.40
2022-11-21T10:47:55.897Z,1.10
2022-11-21T10:51:07.538Z,2.67
2022-11-21T10:53:56.022Z,0.63
2022-11-21T11:00:00.814Z,1.13
2022-11-21T11:02:30.799Z,0.83
2022-11-21T11:05:29.305Z,1.17
2022-11-21T11:11:50.092Z,1.90
2022-11-21T11:14:33.907Z,1.50
2022-11-21T11:20:56.262Z,2.13
2022-11-21T11:23:49.158Z,2.20
2022-11-21T11:27:15.455Z,1.70
2022-11-21T11:33:51.934Z,2.40
2022-11-21T11:36:58.620Z,3.43
2022-11-21T11:40:02.888Z,2.40
2022-11-21T11:43:13.748Z,1.73
2022-11-21T11:47:05.087Z,2.80
2022-11-21T11:50:18.615Z,3.37
2022-11-21T11:56:29.301Z,3.23
2022-11-21T11:59:07.093Z,2.33
2022-11-21T12:01:51.988Z,2.70
2022-11-21T12:08:33.202Z,4.30
2022-11-21T12:10:36.997Z,2.90
2022-11-21T12:13:32.685Z,2.10
2022-11-21T12:16:13.723Z,2.57
2022-11-21T12:19:06.337Z,2.77
2022-11-21T12:21:48.209Z,2.43
2022-11-21T12:27:30.450Z,2.30
2022-11-21T12:30:29.213Z,2.47
2022-11-21T12:33:13.619Z,2.80
2022-11-21T12:36:18.169Z,1.97
2022-11-21T12:39:15.178Z,1.80
2022-11-21T12:45:14.352Z,2.50
2022-11-21T12:48:35.949Z,3.10
2022-11-21T12:52:04.603Z,1.93
2022-11-21T12:55:13.759Z,2.23
2022-11-21T12:57:59.279Z,2.90
2022-11-21T13:09:23.882Z,3.60
2022-11-21T13:15:16.151Z,2.53
2022-11-21T13:24:07.294Z,1.70
2022-11-21T13:33:48.341Z,2.37
2022-11-21T13:43:41.098Z,1.87
2022-11-21T13:47:03.187Z,2.20
2022-11-21T13:52:59.774Z,2.17
2022-11-21T13:59:00.556Z,2.13
2022-11-21T14:02:45.908Z,2.30
2022-11-21T14:06:02.057Z,2.90
2022-11-21T14:09:18.931Z,2.30
2022-11-21T14:15:32.186Z,1.37
2022-11-21T14:21:37.919Z,1.37
2022-11-21T14:27:34.142Z,1.90
2022-11-21T14:30:03.864Z,3.47
2022-11-21T14:32:56.160Z,1.57
2022-11-21T14:36:12.303Z,2.27
2022-11-21T14:39:21.010Z,2.57
2022-11-21T14:42:09.961Z,1.67
2022-11-21T14:44:42.181Z,5.13
2022-11-21T14:47:31.477Z,2.50
2022-11-21T14:50:07.738Z,2.00
2022-11-21T14:52:51.963Z,2.70
2022-11-21T14:55:41.536Z,2.00
2022-11-21T14:58:12.585Z,1.70
2022-11-21T15:01:07.203Z,2.83
2022-11-21T15:03:38.045Z,1.93
2022-11-21T15:13:08.532Z,1.10
2022-11-21T15:19:00.048Z,1.63
2022-11-21T15:21:47.397Z,1.27
2022-11-21T15:25:05.523Z,1.47
2022-11-21T15:30:48.048Z,1.93
2022-11-21T15:33:32.536Z,1.80
2022-11-21T15:39:46.316Z,2.30
2022-11-21T15:48:53.194Z,1.93
2022-11-21T15:52:07.728Z,1.37
2022-11-21T16:01:26.133Z,1.30
2022-11-21T16:04:16.420Z,1.17
2022-11-21T16:07:18.154Z,1.53
2022-11-21T16:09:57.291Z,1.67
2022-11-21T16:12:49.012Z,2.67
2022-11-21T16:15:23.678Z,1.30
2022-11-21T16:18:00.944Z,3.07
2022-11-21T16:23:41.945Z,1.43
2022-11-21T16:26:14.329Z,1.43
2022-11-21T16:29:07.124Z,2.20
2022-11-21T16:42:28.145Z,2.53
2022-11-21T16:45:11.362Z,1.90
2022-11-21T16:47:49.239Z,1.30
2022-11-21T16:50:20.057Z,2.20
2022-11-21T16:52:53.077Z,2.23
2022-11-21T16:55:43.679Z,1.73
2022-11-21T17:01:24.708Z,2.17
2022-11-21T17:04:03.291Z,2.20
2022-11-21T17:06:58.380Z,2.23
2022-11-21T17:09:29.310Z,1.60
2022-11-21T17:15:03.200Z,1.90
2022-11-21T17:18:07.195Z,1.40
2022-11-21T17:26:46.711Z,1.93
2022-11-21T17:44:45.552Z,2.30
2022-11-21T17:47:41.249Z,2.47
2022-11-21T17:53:14.785Z,1.87
2022-11-21T17:55:55.362Z,1.10
2022-11-21T17:58:25.456Z,0.60
2022-11-21T18:01:24.832Z,0.73
2022-11-21T18:04:11.671Z,1.10
2022-11-21T18:09:51.156Z,2.17
2022-11-21T18:12:23.818Z,1.90
2022-11-21T18:14:54.913Z,1.90
2022-11-21T18:17:30.828Z,1.37
2022-11-21T18:20:01.970Z,1.10
2022-11-21T18:22:38.303Z,1.30
2022-11-21T18:25:51.554Z,1.83
2022-11-21T18:28:44.972Z,1.77
2022-11-21T18:46:21.667Z,1.37
2022-11-21T18:49:10.589Z,1.97
2022-11-21T18:51:42.220Z,1.40
2022-11-21T18:57:27.247Z,2.90
2022-11-21T19:05:52.626Z,1.60
2022-11-21T19:14:24.289Z,2.37
2022-11-21T19:17:07.067Z,0.90
2022-11-21T19:31:23.962Z,3.60
2022-11-21T19:34:06.464Z,4.60
2022-11-21T20:13:15.673Z,2.70
2022-11-21T20:16:08.286Z,1.87
2022-11-21T20:18:56.193Z,2.33
2022-11-21T20:21:42.417Z,1.80
2022-11-21T20:24:43.332Z,2.10
2022-11-21T20:30:40.631Z,2.53
2022-11-21T20:33:25.862Z,2.10
2022-11-21T20:35:58.163Z,1.33
2022-11-21T20:38:38.238Z,1.23
2022-11-21T20:44:41.754Z,0.67
2022-11-21T20:46:53.574Z,1.00
2022-11-21T20:53:50.776Z,0.90
2022-11-21T20:56:12.048Z,1.03
2022-11-21T20:58:55.784Z,1.33
2022-11-21T21:04:29.146Z,2.10
2022-11-21T21:10:02.850Z,1.80
2022-11-21T21:19:09.838Z,1.70
2022-11-21T21:27:32.295Z,1.90
2022-11-21T21:44:32.984Z,2.63
2022-11-21T21:50:01.382Z,1.47
2022-11-21T21:52:36.935Z,1.30
2022-11-21T22:02:06.929Z,1.37
2022-11-21T22:05:34.584Z,1.20
2022-11-21T22:14:19.496Z,2.20
2022-11-21T22:43:20.515Z,1.50
2022-11-21T22:45:55.208Z,0.87
2022-11-21T23:02:21.056Z,1.20
2022-11-21T23:04:51.594Z,1.50
2022-11-21T23:34:13.222Z,1.23
2022-11-21T23:48:18.964Z,1.10
